Fox Island, Washington
Current Conditions -  °F | °C
As of 5:00 AM on Friday 24 Oct 2014 (Local Time) from KTIW Reporting Station
Overcast Overcast  
Wind Chill: 49°   Ceiling: 3600
Heat Index: 49°   Visibility: 10mi
Dew Point: 46°   Wind: 3mph
Humidity: 90%   Direction: 40°NE
Pressure: 30.02"   Gusts: NA
Location:  47.25°N, 122.63°W
Report Text: KTIW 241200Z AUTO 04003KT 10SM SCT026 OVC036 09/08 A3002 RMK AO2 T00940078
Loading
Personal Weather Stations






























Interactive Weather Map
Tropical Storm Tracking
New forecast layout! Learn more

10-Day Weather Forecast

Advertisements
Track Severe Weather on mobile